Time;durP1;ratioP1;P1;durP2;ratioP2;P2;SDS_P1;SDS_P2;PMS_P1;PMS_P2;Temp;Humidity;BMP_temperature;BMP_pressure;BME280_temperature;BME280_humidity;BME280_pressure;Samples;Min_cycle;Max_cycle;Signal;HPM_P1;HPM_P2
2023/04/10 00:02:18;;;;;;;5.85;2.50;;;7.90;20.40;;;;;;5095419;28;20066;-87
2023/04/10 00:04:44;;;;;;;3.00;1.98;;;7.90;12.50;;;;;;5078920;28;20044;-87
2023/04/10 00:07:10;;;;;;;2.53;1.83;;;7.90;19.90;;;;;;5078906;28;20051;-87
2023/04/10 00:09:35;;;;;;;5.50;3.28;;;7.90;13.60;;;;;;5095441;28;20048;-86
2023/04/10 00:12:01;;;;;;;3.92;3.03;;;7.90;16.80;;;;;;5095791;28;20055;-87
2023/04/10 00:14:27;;;;;;;2.88;2.67;;;7.90;15.00;;;;;;5095295;28;20432;-87
2023/04/10 00:16:52;;;;;;;6.55;3.03;;;7.90;17.20;;;;;;5094439;28;20040;-87
2023/04/10 00:19:18;;;;;;;4.82;2.47;;;7.90;17.80;;;;;;5078582;28;20063;-87
2023/04/10 00:21:44;;;;;;;7.13;2.20;;;7.90;24.30;;;;;;5078539;28;20047;-87
2023/04/10 00:24:10;;;;;;;1.60;1.33;;;7.80;21.60;;;;;;5061861;28;20472;-87
2023/04/10 00:26:35;;;;;;;3.35;1.95;;;7.80;20.80;;;;;;5078593;28;20040;-87
2023/04/10 00:29:02;;;;;;;2.22;2.03;;;7.80;20.60;;;;;;5095096;28;20044;-87
2023/04/10 00:31:28;;;;;;;1.92;1.92;;;7.80;20.60;;;;;;5078112;28;20151;-88
2023/04/10 00:33:54;;;;;;;2.72;2.50;;;7.80;23.20;;;;;;5078511;28;20052;-87
2023/04/10 00:36:20;;;;;;;1.33;1.23;;;7.80;22.20;;;;;;5095074;28;20069;-87
2023/04/10 00:38:46;;;;;;;3.47;2.40;;;7.70;25.10;;;;;;5061903;28;20056;-87
2023/04/10 00:41:12;;;;;;;9.57;4.18;;;7.70;18.20;;;;;;5094813;28;20143;-88
2023/04/10 00:43:37;;;;;;;10.20;5.43;;;7.70;25.50;;;;;;5094778;28;20131;-87
2023/04/10 00:46:05;;;;;;;2.55;1.88;;;7.70;18.00;;;;;;5094071;28;20048;-87
2023/04/10 00:48:32;;;;;;;7.38;5.38;;;7.60;24.00;;;;;;5094830;28;20225;-87
2023/04/10 00:50:59;;;;;;;7.88;4.35;;;7.60;27.60;;;;;;5094490;28;20055;-87
2023/04/10 00:53:25;;;;;;;5.03;4.03;;;7.60;29.50;;;;;;5077787;28;20052;-87
2023/04/10 00:55:51;;;;;;;4.68;2.08;;;7.50;29.20;;;;;;5094806;28;20101;-87
2023/04/10 00:58:17;;;;;;;1.63;1.50;;;7.60;26.10;;;;;;5094456;28;20047;-87
2023/04/10 01:00:43;;;;;;;2.72;2.53;;;7.50;26.20;;;;;;5061065;28;21030;-87
2023/04/10 01:03:10;;;;;;;4.55;3.08;;;7.50;27.10;;;;;;5094827;28;20444;-87
2023/04/10 01:05:43;;;;;;;11.02;3.03;;;7.40;30.70;;;;;;5061084;28;20040;-87
2023/04/10 01:08:09;;;;;;;2.53;2.33;;;7.40;27.70;;;;;;5094524;28;20044;-87
2023/04/10 01:10:50;;;;;;;11.40;3.40;;;7.40;29.50;;;;;;5094144;28;20110;-87
2023/04/10 01:13:26;;;;;;;3.95;3.63;;;7.40;29.80;;;;;;5077500;28;20106;-87
2023/04/10 01:16:07;;;;;;;3.35;2.10;;;7.40;29.70;;;;;;5093801;28;20055;-87
2023/04/10 01:19:10;;;;;;;2.88;2.65;;;7.30;30.40;;;;;;5094626;28;20044;-87
2023/04/10 01:21:37;;;;;;;2.03;1.92;;;7.30;33.70;;;;;;5077275;28;20055;-87
2023/04/10 01:24:05;;;;;;;3.92;2.90;;;7.20;33.70;;;;;;5077280;28;20056;-87
2023/04/10 01:26:52;;;;;;;12.32;3.35;;;7.30;39.20;;;;;;5094245;28;20435;-87
2023/04/10 01:29:19;;;;;;;3.15;2.33;;;7.30;32.20;;;;;;5093608;28;20043;-87
2023/04/10 01:31:56;;;;;;;5.80;3.10;;;7.20;36.90;;;;;;5093468;28;20044;-87
2023/04/10 01:34:31;;;;;;;8.18;4.95;;;7.20;32.00;;;;;;5094441;28;20130;-87
2023/04/10 01:37:04;;;;;;;6.57;5.07;;;7.20;32.20;;;;;;5094151;28;20050;-87
2023/04/10 01:39:35;;;;;;;2.72;2.45;;;7.10;37.80;;;;;;5094255;28;20102;-87
2023/04/10 01:42:04;;;;;;;7.68;2.63;;;7.10;33.00;;;;;;5077324;28;20515;-87
2023/04/10 01:44:31;;;;;;;4.85;3.05;;;7.10;39.20;;;;;;5094581;28;20035;-87
2023/04/10 01:46:58;;;;;;;5.15;4.68;;;7.00;36.40;;;;;;5076399;28;20052;-87
2023/04/10 01:49:27;;;;;;;2.05;1.27;;;7.00;37.90;;;;;;5093635;28;20048;-87
2023/04/10 01:51:57;;;;;;;6.60;3.13;;;7.00;42.90;;;;;;5093693;28;20055;-87
2023/04/10 01:54:27;;;;;;;3.25;2.40;;;7.00;40.50;;;;;;5077129;28;20047;-87
2023/04/10 01:56:53;;;;;;;5.20;3.25;;;7.00;41.70;;;;;;5076625;28;20055;-87
2023/04/10 01:59:20;;;;;;;4.18;3.88;;;7.00;39.60;;;;;;5077183;28;20052;-87
2023/04/10 02:01:45;;;;;;;5.07;3.78;;;7.00;42.10;;;;;;5060519;28;20044;-88
2023/04/10 02:04:11;;;;;;;5.82;4.25;;;6.90;42.70;;;;;;5043640;28;20044;-87
2023/04/10 02:06:47;;;;;;;2.88;2.45;;;7.00;42.40;;;;;;5076018;28;20048;-87
2023/04/10 02:09:22;;;;;;;4.13;3.85;;;6.90;41.70;;;;;;5093297;28;20101;-87
2023/04/10 02:11:58;;;;;;;8.48;2.25;;;6.90;41.30;;;;;;5076282;28;20387;-87
2023/04/10 02:14:28;;;;;;;3.20;3.00;;;7.00;39.40;;;;;;5093349;28;20467;-87
2023/04/10 02:16:55;;;;;;;6.25;4.60;;;6.90;37.70;;;;;;5092669;28;20055;-87
2023/04/10 02:19:23;;;;;;;7.15;3.20;;;6.90;32.20;;;;;;5092678;28;20071;-87
2023/04/10 02:21:50;;;;;;;4.78;2.60;;;6.90;36.70;;;;;;5092897;28;20091;-88
2023/04/10 02:24:17;;;;;;;7.95;3.70;;;6.90;37.70;;;;;;5075729;28;20054;-88
2023/04/10 02:26:49;;;;;;;2.47;2.33;;;7.00;34.90;;;;;;5076274;28;20048;-88
2023/04/10 02:29:14;;;;;;;5.35;3.67;;;6.90;38.70;;;;;;5093070;28;20052;-88
2023/04/10 02:31:41;;;;;;;7.28;3.00;;;6.90;38.90;;;;;;5092709;28;20127;-87
2023/04/10 02:34:07;;;;;;;2.22;1.85;;;6.90;38.40;;;;;;5093089;28;20548;-88
2023/04/10 02:36:37;;;;;;;4.07;3.72;;;6.90;45.40;;;;;;5075815;28;20085;-87
2023/04/10 02:39:04;;;;;;;6.70;1.70;;;6.90;45.40;;;;;;5092452;28;20479;-87
2023/04/10 02:41:30;;;;;;;3.20;2.90;;;6.90;44.00;;;;;;5091979;28;20433;-88
2023/04/10 02:43:56;;;;;;;6.63;2.60;;;6.80;44.70;;;;;;5092954;28;20127;-88
2023/04/10 02:46:22;;;;;;;4.13;1.90;;;6.90;41.90;;;;;;5092119;28;20067;-88
2023/04/10 02:48:47;;;;;;;4.78;3.40;;;6.80;40.70;;;;;;5092707;28;20131;-87
2023/04/10 02:51:13;;;;;;;7.38;2.65;;;6.80;43.70;;;;;;5075489;28;20135;-87
2023/04/10 02:53:39;;;;;;;2.35;1.77;;;6.80;43.10;;;;;;5059286;28;20051;-87
2023/04/10 02:56:10;;;;;;;7.82;4.15;;;6.80;37.70;;;;;;5092767;28;20040;-87
2023/04/10 02:58:37;;;;;;;4.88;2.67;;;6.80;43.20;;;;;;5060143;28;20092;-87
2023/04/10 03:01:05;;;;;;;2.55;1.75;;;6.70;47.90;;;;;;5092709;28;20059;-87
2023/04/10 03:03:31;;;;;;;4.47;1.65;;;6.70;47.70;;;;;;5092255;28;20048;-87
2023/04/10 03:05:57;;;;;;;11.70;3.15;;;6.70;49.70;;;;;;5092684;28;20063;-87
2023/04/10 03:08:22;;;;;;;4.60;3.38;;;6.70;44.70;;;;;;5058809;28;20086;-88
2023/04/10 03:10:48;;;;;;;8.57;4.05;;;6.60;45.60;;;;;;5092199;28;20510;-88
2023/04/10 03:13:15;;;;;;;3.60;2.60;;;6.60;46.90;;;;;;5075602;28;20059;-87
2023/04/10 03:15:41;;;;;;;19.35;3.75;;;6.70;45.60;;;;;;5075065;28;20040;-87
2023/04/10 03:18:08;;;;;;;2.05;1.95;;;6.60;48.90;;;;;;5058866;28;20541;-87
2023/04/10 03:20:35;;;;;;;3.35;2.38;;;6.70;48.90;;;;;;5075647;28;20491;-88
2023/04/10 03:23:02;;;;;;;2.13;1.98;;;6.60;47.30;;;;;;5093072;28;20134;-88
2023/04/10 03:25:27;;;;;;;3.63;1.73;;;6.60;46.20;;;;;;5092431;28;20134;-88
2023/04/10 03:27:53;;;;;;;8.63;5.25;;;6.60;49.50;;;;;;5059172;28;20139;-88
2023/04/10 03:30:19;;;;;;;2.05;1.23;;;6.60;46.60;;;;;;5058727;28;20123;-88
2023/04/10 03:32:45;;;;;;;3.55;3.20;;;6.60;47.30;;;;;;5058956;28;20044;-88
2023/04/10 03:35:10;;;;;;;4.18;2.53;;;6.60;48.80;;;;;;5092304;28;20069;-88
2023/04/10 03:37:36;;;;;;;4.53;1.45;;;6.60;48.00;;;;;;5075666;28;20044;-88
2023/04/10 03:40:07;;;;;;;3.00;1.80;;;6.60;47.60;;;;;;5092286;28;20134;-88
2023/04/10 03:42:33;;;;;;;2.92;2.65;;;6.50;49.80;;;;;;5075892;28;20044;-88
2023/04/10 03:45:01;;;;;;;3.75;3.22;;;6.50;45.20;;;;;;5075502;28;20048;-88
2023/04/10 03:47:27;;;;;;;9.85;5.40;;;6.60;47.70;;;;;;5091433;28;20052;-88
2023/04/10 03:49:53;;;;;;;11.40;2.33;;;6.50;47.10;;;;;;5075402;28;20133;-87
2023/04/10 03:52:19;;;;;;;8.88;2.28;;;6.50;49.80;;;;;;5076974;28;20384;-87
2023/04/10 03:54:44;;;;;;;2.72;2.05;;;6.50;47.80;;;;;;5096084;28;20134;-88
2023/04/10 03:57:10;;;;;;;7.05;2.65;;;6.50;49.70;;;;;;5062319;28;20044;-88
2023/04/10 03:59:36;;;;;;;9.27;4.35;;;6.50;51.20;;;;;;5078740;28;20134;-88
2023/04/10 04:02:02;;;;;;;3.28;2.88;;;6.50;50.50;;;;;;5061857;28;20082;-88
2023/04/10 04:04:30;;;;;;;8.20;3.80;;;6.50;48.20;;;;;;5095783;28;20040;-88
2023/04/10 04:06:55;;;;;;;6.60;2.92;;;6.40;51.10;;;;;;5078861;28;20087;-88
2023/04/10 04:09:21;;;;;;;11.02;3.92;;;6.40;51.10;;;;;;5095457;28;20459;-88
2023/04/10 04:11:47;;;;;;;6.03;3.95;;;6.40;50.20;;;;;;5078374;28;20109;-87
2023/04/10 04:14:12;;;;;;;5.72;2.17;;;6.50;52.10;;;;;;5078623;28;20036;-88
2023/04/10 04:16:38;;;;;;;6.90;2.70;;;6.50;50.50;;;;;;5044689;28;20052;-88
2023/04/10 04:19:04;;;;;;;2.88;2.15;;;6.40;50.50;;;;;;5095595;28;20044;-87
2023/04/10 04:21:30;;;;;;;2.78;2.00;;;6.40;49.30;;;;;;5062126;28;20048;-88
2023/04/10 04:23:56;;;;;;;6.00;2.35;;;6.30;51.60;;;;;;5061901;28;20048;-88
2023/04/10 04:26:23;;;;;;;6.95;2.25;;;6.30;52.20;;;;;;5095076;28;20075;-88
2023/04/10 04:28:49;;;;;;;3.95;2.08;;;6.30;53.60;;;;;;5095260;28;20501;-88
2023/04/10 04:31:15;;;;;;;2.67;1.58;;;6.20;54.20;;;;;;5094723;28;20051;-87
2023/04/10 04:33:41;;;;;;;2.25;1.83;;;6.20;55.60;;;;;;5078678;28;20047;-88
2023/04/10 04:36:07;;;;;;;0.90;0.85;;;6.20;53.40;;;;;;5078237;28;20502;-88
2023/04/10 04:38:32;;;;;;;1.48;1.05;;;6.20;56.20;;;;;;5045109;28;20059;-88
2023/04/10 04:40:58;;;;;;;6.30;2.70;;;6.20;54.80;;;;;;5078253;28;20098;-88
2023/04/10 04:43:24;;;;;;;10.82;2.50;;;6.20;56.30;;;;;;5077990;28;20502;-88
2023/04/10 04:45:49;;;;;;;2.00;1.90;;;6.20;52.70;;;;;;5077538;28;20043;-88
2023/04/10 04:48:15;;;;;;;1.85;1.33;;;6.20;57.30;;;;;;5094942;28;20036;-87
2023/04/10 04:50:41;;;;;;;3.97;1.83;;;6.20;55.10;;;;;;5094515;28;20047;-88
2023/04/10 04:53:08;;;;;;;2.95;2.38;;;6.20;56.50;;;;;;5094805;28;20097;-88
2023/04/10 04:55:34;;;;;;;4.20;2.42;;;6.20;56.40;;;;;;5077792;28;20036;-88
2023/04/10 04:57:59;;;;;;;3.22;2.05;;;6.30;55.90;;;;;;5094474;28;20050;-88
2023/04/10 05:00:25;;;;;;;7.18;3.10;;;6.30;52.50;;;;;;5077728;28;20131;-87
2023/04/10 05:02:51;;;;;;;2.55;2.35;;;6.30;49.60;;;;;;5077035;28;20407;-87
2023/04/10 05:05:16;;;;;;;4.10;1.90;;;6.30;50.60;;;;;;5060971;28;20051;-88
2023/04/10 05:07:42;;;;;;;2.88;1.50;;;6.30;56.10;;;;;;5097292;28;20081;-88
2023/04/10 05:10:08;;;;;;;3.65;1.58;;;6.40;55.50;;;;;;5077389;28;20090;-87
2023/04/10 05:12:34;;;;;;;2.90;2.65;;;6.30;54.40;;;;;;5077769;28;20059;-87
2023/04/10 05:15:00;;;;;;;3.80;2.45;;;6.30;54.80;;;;;;5094270;28;20040;-88
2023/04/10 05:17:25;;;;;;;3.58;1.63;;;6.30;55.80;;;;;;5077178;28;20135;-87
2023/04/10 05:19:51;;;;;;;2.33;1.63;;;6.40;50.50;;;;;;5060609;28;20040;-88
2023/04/10 05:22:17;;;;;;;2.67;2.45;;;6.40;51.60;;;;;;5077318;28;20055;-87
2023/04/10 05:24:42;;;;;;;3.03;1.55;;;6.50;54.20;;;;;;5094528;28;20448;-88
2023/04/10 05:27:08;;;;;;;1.42;1.33;;;6.50;51.60;;;;;;5077297;28;20040;-88
2023/04/10 05:29:34;;;;;;;10.65;1.77;;;6.50;50.20;;;;;;5076971;28;20131;-88
2023/04/10 05:32:00;;;;;;;3.03;2.78;;;6.60;53.10;;;;;;5094774;28;20040;-87
2023/04/10 05:34:25;;;;;;;3.78;2.13;;;6.60;49.00;;;;;;5060698;28;20150;-88
2023/04/10 05:36:51;;;;;;;4.70;2.05;;;6.60;49.60;;;;;;5094258;28;20047;-88
2023/04/10 05:39:20;;;;;;;2.60;2.40;;;6.70;45.10;;;;;;5077431;28;20044;-88
2023/04/10 05:41:45;;;;;;;7.38;3.45;;;6.70;43.90;;;;;;5093773;28;20040;-88
2023/04/10 05:44:11;;;;;;;3.35;3.13;;;6.70;47.70;;;;;;5077059;28;20040;-88
2023/04/10 05:46:37;;;;;;;3.17;2.22;;;6.80;47.60;;;;;;5076103;28;20051;-88
2023/04/10 05:49:02;;;;;;;5.13;3.33;;;6.90;47.80;;;;;;5093905;28;20047;-90
2023/04/10 05:51:28;;;;;;;2.85;2.45;;;6.90;48.60;;;;;;5076624;28;20448;-88
2023/04/10 05:53:54;;;;;;;4.95;3.53;;;7.00;44.90;;;;;;5076869;28;20085;-88
2023/04/10 05:56:20;;;;;;;2.70;1.85;;;7.00;47.90;;;;;;5094923;28;20092;-87
2023/04/10 05:58:45;;;;;;;2.05;1.85;;;7.10;46.50;;;;;;5094678;28;20039;-88
2023/04/10 06:01:12;;;;;;;3.10;1.42;;;7.20;44.40;;;;;;5094787;28;20509;-91
2023/04/10 06:03:38;;;;;;;1.55;1.45;;;7.30;43.00;;;;;;5095606;28;20050;-90
2023/04/10 06:06:05;;;;;;;6.75;2.90;;;7.40;43.30;;;;;;5095396;28;20047;-89
2023/04/10 06:08:31;;;;;;;2.28;2.08;;;7.50;37.90;;;;;;5093866;28;20101;-88
2023/04/10 06:10:57;;;;;;;10.98;3.47;;;7.60;34.70;;;;;;5059964;28;20051;-93
2023/04/10 06:13:23;;;;;;;8.55;3.20;;;7.80;32.90;;;;;;5079800;28;20087;-88
2023/04/10 06:15:49;;;;;;;3.58;3.38;;;7.80;31.10;;;;;;5060815;28;20066;-85
2023/04/10 06:18:14;;;;;;;4.25;3.35;;;7.90;29.20;;;;;;5077449;28;20463;-86
2023/04/10 06:20:40;;;;;;;4.45;3.05;;;8.00;30.00;;;;;;5093035;28;20160;-85
2023/04/10 06:23:06;;;;;;;5.75;1.98;;;8.10;25.30;;;;;;5076325;28;20040;-86
2023/04/10 06:25:32;;;;;;;3.80;1.75;;;8.10;25.30;;;;;;5093048;28;20531;-85
2023/04/10 06:27:57;;;;;;;3.58;2.42;;;8.30;25.40;;;;;;5076338;28;20087;-88
2023/04/10 06:30:23;;;;;;;6.68;2.20;;;8.40;23.90;;;;;;5077555;28;20036;-96
2023/04/10 06:32:49;;;;;;;1.55;1.45;;;8.60;24.00;;;;;;5080318;28;20417;-88
2023/04/10 06:35:14;;;;;;;1.48;1.42;;;8.80;21.40;;;;;;5061309;28;20040;-89
2023/04/10 06:37:41;;;;;;;2.42;2.22;;;9.00;18.60;;;;;;5077894;28;20471;-87
2023/04/10 06:40:09;;;;;;;9.57;2.17;;;9.20;15.80;;;;;;5093135;28;20086;-87
2023/04/10 06:42:35;;;;;;;2.78;2.58;;;9.40;7.30;;;;;;5092763;28;20059;-87
2023/04/10 06:45:02;;;;;;;8.88;2.63;;;9.70;1.60;;;;;;5093147;28;20127;-87
2023/04/10 06:47:28;;;;;;;2.72;2.20;;;9.90;1.00;;;;;;5058886;28;20121;-87
2023/04/10 06:49:54;;;;;;;6.70;4.35;;;10.10;1.00;;;;;;5076751;28;20082;-87
2023/04/10 06:52:20;;;;;;;2.42;1.58;;;10.20;1.00;;;;;;5059532;28;20036;-87
2023/04/10 06:54:46;;;;;;;3.47;2.70;;;10.30;1.00;;;;;;5092632;28;20040;-87
2023/04/10 06:57:12;;;;;;;3.25;1.33;;;10.20;1.00;;;;;;5092710;28;20044;-87
2023/04/10 06:59:37;;;;;;;3.42;1.27;;;10.20;1.00;;;;;;5076248;28;20036;-87
2023/04/10 07:02:03;;;;;;;1.77;1.67;;;10.20;1.00;;;;;;5059147;28;20115;-87
2023/04/10 07:04:30;;;;;;;9.02;4.43;;;10.30;1.00;;;;;;5059749;28;20063;-86
2023/04/10 07:06:55;;;;;;;2.38;1.73;;;10.30;1.00;;;;;;5092994;28;20075;-94
2023/04/10 07:09:21;;;;;;;2.28;2.08;;;10.40;1.00;;;;;;5076412;28;20040;-90
2023/04/10 07:11:48;;;;;;;2.65;2.30;;;10.50;1.00;;;;;;5075403;28;20056;-88
2023/04/10 07:14:13;;;;;;;0.88;0.85;;;10.50;1.00;;;;;;5076002;28;20056;-86
2023/04/10 07:16:39;;;;;;;17.95;2.78;;;10.50;1.00;;;;;;5076017;28;20044;-86
2023/04/10 07:19:05;;;;;;;6.68;1.58;;;10.60;1.00;;;;;;5076115;28;20036;-86
2023/04/10 07:21:31;;;;;;;1.15;1.05;;;11.00;1.00;;;;;;5092278;28;20073;-86
2023/04/10 07:23:57;;;;;;;2.45;1.35;;;11.40;1.00;;;;;;5092529;28;20047;-86
2023/04/10 07:26:24;;;;;;;2.55;1.30;;;12.00;1.00;;;;;;5075668;28;20123;-86
2023/04/10 07:28:50;;;;;;;5.47;1.58;;;12.80;1.00;;;;;;5096597;28;20036;-86
2023/04/10 07:31:16;;;;;;;1.92;1.77;;;13.10;99.90;;;;;;5079238;28;20062;-85
2023/04/10 07:33:43;;;;;;;1.48;1.38;;;13.00;99.90;;;;;;5096158;28;20541;-84
2023/04/10 07:36:09;;;;;;;1.58;1.48;;;13.00;78.40;;;;;;5096605;28;20046;-84
2023/04/10 07:38:35;;;;;;;3.25;1.95;;;13.30;33.70;;;;;;5096128;28;20130;-84
2023/04/10 07:41:01;;;;;;;2.17;1.58;;;13.20;1.00;;;;;;5079004;28;20055;-84
2023/04/10 07:43:26;;;;;;;9.00;2.95;;;13.10;1.00;;;;;;5062637;28;20459;-85
2023/04/10 07:45:52;;;;;;;2.70;1.75;;;13.10;1.00;;;;;;5079177;28;20549;-84
2023/04/10 07:48:19;;;;;;;2.33;1.92;;;13.40;99.90;;;;;;5079195;28;20047;-84
2023/04/10 07:50:44;;;;;;;1.75;1.63;;;13.90;99.90;;;;;;5095664;28;20459;-84
2023/04/10 07:53:10;;;;;;;5.13;1.65;;;14.10;99.90;;;;;;5095888;28;20132;-84
2023/04/10 07:55:40;;;;;;;7.50;2.33;;;14.30;99.90;;;;;;5078963;28;20509;-84
2023/04/10 07:58:06;;;;;;;1.65;1.38;;;14.20;1.00;;;;;;5079195;28;20081;-84
2023/04/10 08:00:32;;;;;;;4.05;2.35;;;14.00;1.00;;;;;;5095740;28;20043;-85
2023/04/10 08:02:58;;;;;;;2.05;1.63;;;13.90;1.00;;;;;;5095741;28;20431;-85
2023/04/10 08:05:24;;;;;;;2.55;1.80;;;13.60;99.90;;;;;;5062191;28;20044;-83
2023/04/10 08:07:50;;;;;;;0.63;0.35;;;13.60;99.90;;;;;;5078980;28;20055;-84
2023/04/10 08:10:15;;;;;;;3.22;1.67;;;13.60;99.90;;;;;;5078040;28;20052;-84
2023/04/10 08:12:41;;;;;;;7.00;2.33;;;13.50;1.00;;;;;;5079260;28;20059;-84
2023/04/10 08:15:07;;;;;;;2.65;0.98;;;13.50;99.90;;;;;;5078622;28;20048;-84
2023/04/10 08:17:33;;;;;;;1.35;1.25;;;13.50;99.90;;;;;;5078293;28;20044;-84
2023/04/10 08:19:58;;;;;;;2.03;0.93;;;13.60;1.00;;;;;;5095630;28;20138;-84
2023/04/10 08:22:24;;;;;;;1.25;1.00;;;13.60;99.90;;;;;;5078401;28;20048;-84
2023/04/10 08:24:50;;;;;;;1.30;0.25;;;13.80;99.90;;;;;;5061639;28;20044;-84
2023/04/10 08:27:15;;;;;;;1.58;0.82;;;13.80;99.90;;;;;;5095385;28;20048;-84
2023/04/10 08:29:42;;;;;;;1.63;1.08;;;13.70;99.90;;;;;;5095262;28;20044;-84
2023/04/10 08:32:07;;;;;;;1.05;0.45;;;13.70;99.90;;;;;;5078539;28;20036;-84
2023/04/10 08:34:33;;;;;;;3.25;1.15;;;13.80;99.90;;;;;;5078130;28;20392;-84
2023/04/10 08:36:59;;;;;;;1.10;0.75;;;13.90;99.90;;;;;;5096182;28;20050;-84
2023/04/10 08:39:25;;;;;;;1.25;0.95;;;14.00;99.90;;;;;;5094623;28;20101;-84
2023/04/10 08:41:50;;;;;;;0.40;0.40;;;14.00;99.90;;;;;;5078121;28;20052;-84
2023/04/10 08:44:16;;;;;;;3.88;1.25;;;14.10;80.90;;;;;;5078116;28;20139;-84
2023/04/10 08:46:44;;;;;;;1.48;1.08;;;14.20;1.00;;;;;;5094504;28;20070;-85
2023/04/10 08:49:17;;;;;;;1.30;1.20;;;14.20;3.80;;;;;;5094765;28;20527;-85
2023/04/10 08:51:50;;;;;;;1.35;1.25;;;14.10;1.00;;;;;;5077667;28;20039;-84
2023/04/10 08:54:28;;;;;;;1.35;0.38;;;14.30;1.00;;;;;;5096233;28;20566;-84
2023/04/10 08:56:55;;;;;;;0.63;0.63;;;14.30;99.90;;;;;;5094812;28;20050;-84
2023/04/10 08:59:21;;;;;;;2.47;1.40;;;14.40;99.90;;;;;;5095077;28;20087;-84
2023/04/10 09:01:47;;;;;;;0.60;0.30;;;14.50;99.90;;;;;;5094731;28;20047;-83
2023/04/10 09:04:13;;;;;;;4.47;2.38;;;14.60;99.90;;;;;;5077550;28;20055;-84
2023/04/10 09:06:39;;;;;;;2.20;1.55;;;14.80;99.90;;;;;;5094251;28;20590;-84
2023/04/10 09:09:06;;;;;;;0.93;0.40;;;15.00;99.90;;;;;;5094488;28;20122;-84
2023/04/10 09:11:59;;;;;;;8.32;1.10;;;15.10;99.90;;;;;;5077311;28;20052;-85
2023/04/10 09:14:28;;;;;;;0.85;0.65;;;15.30;99.90;;;;;;5077366;28;20500;-85
2023/04/10 09:17:12;;;;;;;5.13;1.10;;;15.40;99.90;;;;;;5093798;28;20514;-85
2023/04/10 09:19:37;;;;;;;2.15;1.20;;;15.70;1.00;;;;;;5094544;28;20048;-85
2023/04/10 09:22:03;;;;;;;3.60;1.13;;;15.70;99.90;;;;;;5077248;28;20098;-85
2023/04/10 09:24:29;;;;;;;0.47;0.47;;;15.80;30.10;;;;;;5077415;28;20195;-85
2023/04/10 09:26:55;;;;;;;1.95;1.23;;;16.00;99.90;;;;;;5077487;28;20052;-85
2023/04/10 09:29:20;;;;;;;0.10;0.10;;;16.20;99.90;;;;;;5093948;28;20048;-85
2023/04/10 09:31:46;;;;;;;0.38;0.38;;;16.30;1.00;;;;;;5093586;28;20052;-85
2023/04/10 09:34:15;;;;;;;0.15;0.15;;;16.20;1.00;;;;;;5093834;28;20082;-85
2023/04/10 09:36:53;;;;;;;0.60;0.60;;;16.20;1.00;;;;;;5094015;28;20164;-85
2023/04/10 09:39:19;;;;;;;0.95;0.68;;;16.10;1.00;;;;;;5076785;28;20048;-86
2023/04/10 09:41:54;;;;;;;0.60;0.60;;;16.20;31.10;;;;;;5093695;28;20082;-85
2023/04/10 09:44:40;;;;;;;0.43;0.43;;;16.30;15.00;;;;;;5093902;28;20048;-85
2023/04/10 09:47:20;;;;;;;0.40;0.40;;;16.30;33.80;;;;;;5092962;28;20040;-85
2023/04/10 09:49:47;;;;;;;5.45;0.95;;;16.20;43.00;;;;;;5076161;28;20506;-85
2023/04/10 09:52:18;;;;;;;1.45;1.35;;;16.10;42.40;;;;;;5076543;28;20048;-85
2023/04/10 09:54:44;;;;;;;0.20;0.20;;;16.00;62.00;;;;;;5093391;28;20058;-86
2023/04/10 09:57:14;;;;;;;0.63;0.25;;;16.10;63.30;;;;;;5093853;28;20101;-85
2023/04/10 09:59:43;;;;;;;2.25;0.65;;;16.20;64.90;;;;;;5093552;28;20062;-86
2023/04/10 10:02:11;;;;;;;1.20;0.50;;;16.30;70.70;;;;;;5077046;28;20097;-86
2023/04/10 10:04:41;;;;;;;2.53;0.88;;;16.40;69.40;;;;;;5060118;28;20109;-86
2023/04/10 10:07:07;;;;;;;1.17;0.77;;;16.50;70.80;;;;;;5076660;28;20515;-86
2023/04/10 10:09:34;;;;;;;0.30;0.30;;;16.50;69.70;;;;;;5093392;28;20047;-86
2023/04/10 10:12:02;;;;;;;0.40;0.30;;;16.70;70.30;;;;;;5093250;28;20091;-86
2023/04/10 10:14:28;;;;;;;0.98;0.98;;;16.70;69.10;;;;;;5093175;28;20072;-86
2023/04/10 10:16:58;;;;;;;0.05;0.05;;;16.80;69.70;;;;;;5092852;28;20096;-86
2023/04/10 10:19:32;;;;;;;0.20;0.20;;;17.00;69.90;;;;;;5076280;28;20113;-86
2023/04/10 10:22:00;;;;;;;0.25;0.10;;;17.20;73.20;;;;;;5093968;28;20059;-86
2023/04/10 10:24:28;;;;;;;0.10;0.10;;;17.10;75.70;;;;;;5093158;28;20487;-86
2023/04/10 10:27:00;;;;;;;0.73;0.73;;;17.30;74.70;;;;;;5076479;28;20065;-86
2023/04/10 10:29:31;;;;;;;1.45;0.65;;;17.20;75.80;;;;;;5093038;28;20086;-86
2023/04/10 10:32:01;;;;;;;0.00;0.00;;;17.30;75.10;;;;;;5059253;28;20047;-83
2023/04/10 10:34:28;;;;;;;0.10;0.10;;;17.30;75.40;;;;;;5093104;28;20052;-84
2023/04/10 10:36:54;;;;;;;0.98;0.32;;;17.20;73.40;;;;;;5059543;28;20047;-84
2023/04/10 10:39:30;;;;;;;0.10;0.10;;;17.00;73.40;;;;;;5093253;28;20044;-84
2023/04/10 10:42:19;;;;;;;0.17;0.17;;;16.90;73.60;;;;;;5093329;28;20052;-84
2023/04/10 10:44:48;;;;;;;0.25;0.10;;;16.90;75.60;;;;;;5092915;28;20048;-84
2023/04/10 10:47:27;;;;;;;0.00;0.00;;;16.80;74.70;;;;;;5075703;28;20052;-84
2023/04/10 10:49:58;;;;;;;0.00;0.00;;;17.00;76.00;;;;;;5092962;28;20044;-85
2023/04/10 10:52:38;;;;;;;0.00;0.00;;;17.00;73.70;;;;;;5076038;28;20058;-84
2023/04/10 10:55:24;;;;;;;0.38;0.38;;;17.10;76.10;;;;;;5092829;28;20098;-84
2023/04/10 10:57:54;;;;;;;1.20;0.00;;;17.20;74.60;;;;;;5092846;28;20040;-84
2023/04/10 11:00:24;;;;;;;0.55;0.28;;;17.20;74.50;;;;;;5092573;28;20523;-86
2023/04/10 11:03:11;;;;;;;0.03;0.03;;;17.10;73.80;;;;;;5078937;28;20052;-86
2023/04/10 11:05:53;;;;;;;0.40;0.40;;;16.90;74.60;;;;;;5080650;28;20100;-85
2023/04/10 11:08:43;;;;;;;0.80;0.30;;;16.90;74.60;;;;;;5096854;28;20048;-84
2023/04/10 11:11:26;;;;;;;1.50;0.35;;;16.90;75.20;;;;;;5096502;28;20063;-85
2023/04/10 11:13:51;;;;;;;0.28;0.28;;;17.00;75.80;;;;;;5096515;28;20131;-85
2023/04/10 11:16:18;;;;;;;0.10;0.08;;;17.00;73.40;;;;;;5079351;28;20087;-85
2023/04/10 11:18:47;;;;;;;0.00;0.00;;;17.20;74.50;;;;;;5096671;28;20052;-85
2023/04/10 11:21:14;;;;;;;0.55;0.10;;;17.20;73.00;;;;;;5080133;28;20086;-85
2023/04/10 11:23:49;;;;;;;0.00;0.00;;;17.20;72.80;;;;;;5079602;28;20104;-86
2023/04/10 11:26:34;;;;;;;0.43;0.43;;;17.10;73.00;;;;;;5096424;28;20043;-85
2023/04/10 11:29:01;;;;;;;0.43;0.20;;;17.10;73.50;;;;;;5080134;28;20048;-86
2023/04/10 11:31:27;;;;;;;0.00;0.00;;;17.00;71.40;;;;;;5079131;28;20483;-86
2023/04/10 11:33:58;;;;;;;0.00;0.00;;;17.00;71.50;;;;;;5079811;28;20052;-85
2023/04/10 11:36:25;;;;;;;0.00;0.00;;;16.80;71.10;;;;;;5096131;28;20384;-85
2023/04/10 11:39:04;;;;;;;0.00;0.00;;;16.80;71.70;;;;;;5097044;28;20044;-86
2023/04/10 11:41:52;;;;;;;0.25;0.25;;;16.70;71.00;;;;;;5079671;28;20040;-86
2023/04/10 11:44:25;;;;;;;0.00;0.00;;;16.80;71.60;;;;;;5096105;28;20062;-85
2023/04/10 11:46:51;;;;;;;0.00;0.00;;;16.80;72.50;;;;;;5095944;28;20083;-85
2023/04/10 11:49:23;;;;;;;1.25;0.25;;;16.80;72.20;;;;;;5095979;28;20040;-85
2023/04/10 11:51:50;;;;;;;0.35;0.35;;;16.70;71.30;;;;;;5095977;28;20048;-85
2023/04/10 11:54:16;;;;;;;0.08;0.08;;;16.70;70.50;;;;;;5062652;28;20044;-85
2023/04/10 11:56:58;;;;;;;0.82;0.43;;;16.70;72.50;;;;;;5079010;28;20096;-85
2023/04/10 11:59:24;;;;;;;0.13;0.10;;;16.80;71.70;;;;;;5095953;28;20040;-85
2023/04/10 12:01:55;;;;;;;0.00;0.00;;;16.80;72.00;;;;;;5079065;28;20070;-85
2023/04/10 12:04:22;;;;;;;0.35;0.20;;;16.80;71.50;;;;;;5095364;28;20044;-86
2023/04/10 12:06:55;;;;;;;1.05;0.20;;;16.80;72.00;;;;;;5095874;28;20055;-86
2023/04/10 12:09:21;;;;;;;0.63;0.28;;;16.80;72.00;;;;;;5095651;28;20070;-86
2023/04/10 12:11:51;;;;;;;0.00;0.00;;;17.00;72.40;;;;;;5095155;28;20515;-86
2023/04/10 12:14:19;;;;;;;3.25;1.55;;;17.10;71.90;;;;;;5095183;28;20051;-86
2023/04/10 12:16:45;;;;;;;0.00;0.00;;;17.20;71.60;;;;;;5094932;28;20487;-86
2023/04/10 12:19:12;;;;;;;1.30;0.30;;;17.40;72.30;;;;;;5062518;28;20083;-85
2023/04/10 12:21:41;;;;;;;0.15;0.10;;;17.50;71.90;;;;;;5062439;28;20051;-87
2023/04/10 12:24:07;;;;;;;0.10;0.10;;;17.50;71.20;;;;;;5095324;28;20094;-85
2023/04/10 12:26:33;;;;;;;0.00;0.00;;;17.70;72.70;;;;;;5095223;28;20044;-85
2023/04/10 12:28:59;;;;;;;0.03;0.03;;;17.80;71.80;;;;;;5078177;28;20404;-88
2023/04/10 12:31:35;;;;;;;0.00;0.00;;;17.90;70.90;;;;;;5095372;28;20051;-87
2023/04/10 12:34:04;;;;;;;0.00;0.00;;;18.00;71.20;;;;;;5095322;28;20388;-87
2023/04/10 12:36:30;;;;;;;0.08;0.08;;;18.10;71.80;;;;;;5078299;28;20062;-85
2023/04/10 12:39:01;;;;;;;0.13;0.10;;;18.30;71.70;;;;;;5078275;28;20499;-86
2023/04/10 12:41:33;;;;;;;0.10;0.10;;;18.40;71.00;;;;;;5094692;28;20575;-86
2023/04/10 12:44:11;;;;;;;0.10;0.10;;;18.30;70.70;;;;;;5095065;28;20059;-86
2023/04/10 12:46:37;;;;;;;0.05;0.05;;;18.10;70.70;;;;;;5094779;28;20040;-85
2023/04/10 12:49:11;;;;;;;0.73;0.32;;;17.90;70.40;;;;;;5094735;28;20423;-86
2023/04/10 12:51:55;;;;;;;0.08;0.08;;;17.70;70.90;;;;;;5094643;28;20537;-86
2023/04/10 12:54:35;;;;;;;0.00;0.00;;;17.60;72.40;;;;;;5078931;28;20071;-88
2023/04/10 12:57:03;;;;;;;0.00;0.00;;;17.60;73.00;;;;;;5078245;28;20134;-85
2023/04/10 12:59:32;;;;;;;0.10;0.00;;;17.60;72.10;;;;;;5077651;28;20062;-86